Time;durP1;ratioP1;P1;durP2;ratioP2;P2;SDS_P1;SDS_P2;PMS_P1;PMS_P2;Temp;Humidity;BMP_temperature;BMP_pressure;BME280_temperature;BME280_humidity;BME280_pressure;Samples;Min_cycle;Max_cycle;Signal;HPM_P1;HPM_P2
2022/11/24 00:00:14;;;;;;;1.60;1.30;;;7.60;98.20;;;;;;4988770;28;21019;-76
2022/11/24 00:02:43;;;;;;;1.60;1.30;;;7.60;98.20;;;;;;4991082;28;20534;-76
2022/11/24 00:05:09;;;;;;;1.60;1.30;;;7.60;98.20;;;;;;5006866;28;20487;-76
2022/11/24 00:07:36;;;;;;;1.60;1.30;;;7.60;98.20;;;;;;4979821;28;20480;-76
2022/11/24 00:10:03;;;;;;;1.60;1.20;;;7.60;98.20;;;;;;5007179;28;20537;-76
2022/11/24 00:12:30;;;;;;;1.60;1.30;;;7.60;98.20;;;;;;4995641;28;21128;-76
2022/11/24 00:14:57;;;;;;;1.60;1.50;;;7.60;98.20;;;;;;5005767;28;20484;-76
2022/11/24 00:17:23;;;;;;;1.60;1.30;;;7.60;98.20;;;;;;4996137;28;20480;-77
2022/11/24 00:19:52;;;;;;;1.60;1.40;;;7.60;98.20;;;;;;5024480;28;20470;-76
2022/11/24 00:22:18;;;;;;;1.60;1.30;;;7.60;98.20;;;;;;4992473;28;20489;-76
2022/11/24 00:24:45;;;;;;;1.60;1.20;;;7.60;98.20;;;;;;4995061;28;20460;-77
2022/11/24 00:27:12;;;;;;;1.60;1.30;;;7.60;98.20;;;;;;4980018;28;20492;-76
2022/11/24 00:29:38;;;;;;;1.60;1.20;;;7.50;98.20;;;;;;4983568;28;20468;-76
2022/11/24 00:32:06;;;;;;;1.60;1.30;;;7.50;98.20;;;;;;4989256;28;20485;-77
2022/11/24 00:34:33;;;;;;;1.60;1.23;;;7.50;98.20;;;;;;5001918;28;20464;-77
2022/11/24 00:37:01;;;;;;;1.60;1.30;;;7.50;98.20;;;;;;4986431;28;20499;-76
2022/11/24 00:39:27;;;;;;;1.60;1.30;;;7.50;98.20;;;;;;4988410;28;20496;-76
2022/11/24 00:41:54;;;;;;;1.60;1.20;;;7.50;98.20;;;;;;4994032;28;20478;-76
2022/11/24 00:44:21;;;;;;;1.60;1.30;;;7.50;98.20;;;;;;5026246;28;20971;-78
2022/11/24 00:46:47;;;;;;;1.60;1.30;;;7.50;98.20;;;;;;4985842;28;20488;-76
2022/11/24 00:49:14;;;;;;;1.60;1.27;;;7.50;98.20;;;;;;5022641;28;20462;-76
2022/11/24 00:51:41;;;;;;;1.60;1.27;;;7.50;98.20;;;;;;5006225;28;20476;-76
2022/11/24 00:54:09;;;;;;;1.60;1.20;;;7.50;98.20;;;;;;4993204;28;21119;-76
2022/11/24 00:56:36;;;;;;;1.60;1.20;;;7.50;98.20;;;;;;4991743;28;20487;-76
2022/11/24 00:59:02;;;;;;;1.60;1.20;;;7.50;98.20;;;;;;4990787;28;20496;-76
2022/11/24 01:01:30;;;;;;;1.60;1.30;;;7.50;98.20;;;;;;4990563;28;20478;-76
2022/11/24 01:04:00;;;;;;;2.33;2.13;;;7.50;98.20;;;;;;5024589;28;20850;-76
2022/11/24 01:06:28;;;;;;;1.70;1.40;;;7.40;98.20;;;;;;4984221;28;20480;-76
2022/11/24 01:08:56;;;;;;;1.60;1.30;;;7.50;98.20;;;;;;5019501;28;20470;-76
2022/11/24 01:11:26;;;;;;;1.60;1.20;;;7.50;98.20;;;;;;5010378;28;20508;-76
2022/11/24 01:13:56;;;;;;;1.60;1.30;;;7.50;98.20;;;;;;4995772;28;20460;-77
2022/11/24 01:16:25;;;;;;;1.60;1.30;;;7.50;98.20;;;;;;4998556;28;20480;-76
2022/11/24 01:18:53;;;;;;;1.70;1.40;;;7.50;98.20;;;;;;5018788;28;20494;-76
2022/11/24 01:21:21;;;;;;;1.60;1.20;;;7.50;98.20;;;;;;5010861;28;20477;-76
2022/11/24 01:23:48;;;;;;;1.60;1.30;;;7.60;98.20;;;;;;4989056;28;20474;-76
2022/11/24 01:26:17;;;;;;;1.60;1.30;;;7.60;98.20;;;;;;4987967;28;20483;-76
2022/11/24 01:28:45;;;;;;;1.60;1.30;;;7.70;98.20;;;;;;4991727;28;20955;-76
2022/11/24 01:31:12;;;;;;;1.60;1.20;;;7.70;98.20;;;;;;4985521;28;20495;-76
2022/11/24 01:33:39;;;;;;;1.60;1.20;;;7.70;98.20;;;;;;5029482;28;20466;-76
2022/11/24 01:36:06;;;;;;;1.60;1.30;;;7.80;98.20;;;;;;4991515;28;20489;-77
2022/11/24 01:38:33;;;;;;;1.70;1.40;;;7.80;98.20;;;;;;5016009;28;20487;-76
2022/11/24 01:41:01;;;;;;;1.60;1.33;;;7.80;98.20;;;;;;5016378;28;20470;-76
2022/11/24 01:43:28;;;;;;;1.60;1.30;;;7.80;98.20;;;;;;4990085;28;20484;-76
2022/11/24 01:45:58;;;;;;;1.60;1.27;;;7.80;98.20;;;;;;4989002;28;20483;-76
2022/11/24 01:48:30;;;;;;;1.60;1.20;;;7.90;98.20;;;;;;5013842;28;20455;-76
2022/11/24 01:51:07;;;;;;;1.60;1.23;;;7.90;98.20;;;;;;5017503;28;20463;-76
2022/11/24 01:53:34;;;;;;;1.60;1.20;;;7.90;98.20;;;;;;4992966;28;20547;-76
2022/11/24 01:56:01;;;;;;;1.60;1.30;;;7.90;98.20;;;;;;4987910;28;20824;-78
2022/11/24 01:58:30;;;;;;;1.60;1.20;;;7.90;98.20;;;;;;4992067;28;20856;-76
2022/11/24 02:00:59;;;;;;;1.60;1.30;;;8.00;98.20;;;;;;4981522;28;20467;-76
2022/11/24 02:03:32;;;;;;;1.60;1.30;;;8.00;98.20;;;;;;5016727;28;20742;-76
2022/11/24 02:06:02;;;;;;;1.63;1.30;;;8.00;98.20;;;;;;4995770;28;20480;-76
2022/11/24 02:08:34;;;;;;;1.60;1.20;;;8.10;98.20;;;;;;5014096;28;20989;-76
2022/11/24 02:11:03;;;;;;;3.33;3.10;;;8.10;98.20;;;;;;5016257;28;20463;-76
2022/11/24 02:13:31;;;;;;;1.60;1.30;;;8.10;98.20;;;;;;4998734;28;20472;-76
2022/11/24 02:16:00;;;;;;;1.60;1.20;;;8.10;98.20;;;;;;4990948;28;20488;-75
2022/11/24 02:18:27;;;;;;;1.60;1.20;;;8.20;98.20;;;;;;5013468;28;20483;-75
2022/11/24 02:20:53;;;;;;;1.60;1.30;;;8.20;98.20;;;;;;5017380;28;20466;-76
2022/11/24 02:23:24;;;;;;;1.60;1.30;;;8.20;98.20;;;;;;4974509;28;20857;-76
2022/11/24 02:25:59;;;;;;;1.60;1.30;;;8.20;98.20;;;;;;4987843;28;20484;-76
2022/11/24 02:28:29;;;;;;;1.60;1.20;;;8.20;98.20;;;;;;4999755;28;20452;-76
2022/11/24 02:30:56;;;;;;;1.60;1.20;;;8.20;98.20;;;;;;4983455;28;20528;-79
2022/11/24 02:33:24;;;;;;;1.60;1.20;;;8.20;98.20;;;;;;4986624;28;20463;-76
2022/11/24 02:35:51;;;;;;;1.60;1.20;;;8.20;98.20;;;;;;4987838;28;20915;-76
2022/11/24 02:38:18;;;;;;;1.60;1.30;;;8.20;98.20;;;;;;5026073;22;20511;-74
2022/11/24 02:40:49;;;;;;;1.60;1.20;;;8.20;98.20;;;;;;5044550;28;20477;-75
2022/11/24 02:43:20;;;;;;;1.60;1.30;;;8.20;98.20;;;;;;5025826;28;20472;-74
2022/11/24 02:45:48;;;;;;;1.60;1.30;;;8.20;98.20;;;;;;5046500;28;20549;-74
2022/11/24 02:48:17;;;;;;;1.60;1.20;;;8.20;98.20;;;;;;5018444;28;20483;-74
2022/11/24 02:50:44;;;;;;;1.60;1.20;;;8.20;98.20;;;;;;5030906;28;20466;-75
2022/11/24 02:53:12;;;;;;;1.60;1.30;;;8.20;98.20;;;;;;5018198;28;20514;-74
2022/11/24 02:55:39;;;;;;;1.60;1.30;;;8.20;98.20;;;;;;5034595;28;20574;-75
2022/11/24 02:58:08;;;;;;;1.60;1.30;;;8.20;98.20;;;;;;4996255;28;20830;-74
2022/11/24 03:00:35;;;;;;;1.60;1.20;;;8.20;98.20;;;;;;5029887;28;21008;-77
2022/11/24 03:03:05;;;;;;;1.60;1.20;;;8.10;98.20;;;;;;5000929;28;20496;-74
2022/11/24 03:05:32;;;;;;;1.60;1.20;;;8.10;98.20;;;;;;5029940;28;20613;-75
2022/11/24 03:08:00;;;;;;;1.60;1.20;;;8.10;98.20;;;;;;5015606;28;20499;-75
2022/11/24 03:10:27;;;;;;;1.60;1.20;;;8.10;98.20;;;;;;5009689;28;20460;-74
2022/11/24 03:12:55;;;;;;;1.60;1.20;;;8.10;98.20;;;;;;4982363;28;20493;-75
2022/11/24 03:15:24;;;;;;;1.60;1.20;;;8.00;98.20;;;;;;5009641;28;20460;-74
2022/11/24 03:17:56;;;;;;;1.60;1.20;;;8.00;98.20;;;;;;5014720;28;20545;-74
2022/11/24 03:20:25;;;;;;;1.60;1.30;;;8.00;98.20;;;;;;5024136;28;20487;-74
2022/11/24 03:22:54;;;;;;;1.60;1.23;;;8.10;98.20;;;;;;5017846;28;20510;-75
2022/11/24 03:25:21;;;;;;;1.60;1.20;;;8.10;98.20;;;;;;5026420;28;20698;-74
2022/11/24 03:27:48;;;;;;;1.70;1.47;;;8.10;98.20;;;;;;5015425;28;20487;-74
2022/11/24 03:30:16;;;;;;;1.60;1.30;;;8.10;98.20;;;;;;5009617;28;20463;-74
2022/11/24 03:32:43;;;;;;;1.60;1.30;;;8.10;98.20;;;;;;4996438;28;20479;-75
2022/11/24 03:35:10;;;;;;;1.60;1.20;;;8.10;98.20;;;;;;5028726;28;20467;-75
2022/11/24 03:37:39;;;;;;;1.60;1.20;;;8.10;98.20;;;;;;5016533;28;20487;-75
2022/11/24 03:40:07;;;;;;;1.60;1.20;;;8.10;98.20;;;;;;5030203;28;20494;-74
2022/11/24 03:42:34;;;;;;;1.60;1.20;;;8.20;98.20;;;;;;5003755;28;20487;-75
2022/11/24 03:45:03;;;;;;;1.60;1.40;;;8.20;98.20;;;;;;5020734;28;20469;-74
2022/11/24 03:47:30;;;;;;;1.60;1.20;;;8.20;98.20;;;;;;5024981;28;20482;-74
2022/11/24 03:49:56;;;;;;;1.60;1.20;;;8.20;98.20;;;;;;5033471;28;20459;-75
2022/11/24 03:52:25;;;;;;;1.60;1.20;;;8.20;98.20;;;;;;5017372;28;20522;-75
2022/11/24 03:54:53;;;;;;;1.60;1.23;;;8.20;98.20;;;;;;5026627;28;20524;-74
2022/11/24 03:57:20;;;;;;;1.60;1.20;;;8.20;98.20;;;;;;4999068;28;20865;-74
2022/11/24 03:59:47;;;;;;;1.60;1.20;;;8.20;98.20;;;;;;5017589;28;20495;-75
2022/11/24 04:02:15;;;;;;;1.60;1.20;;;8.20;98.20;;;;;;5018691;28;20483;-74
2022/11/24 04:04:49;;;;;;;1.60;1.20;;;8.20;98.20;;;;;;5028106;28;20459;-75
2022/11/24 04:07:17;;;;;;;1.60;1.20;;;8.30;98.20;;;;;;5004812;28;20480;-74
2022/11/24 04:09:45;;;;;;;1.60;1.20;;;8.30;98.20;;;;;;5020161;28;20458;-75
2022/11/24 04:14:57;;;;;;;1.60;1.20;;;8.30;98.20;;;;;;5026832;28;20490;-74
2022/11/24 04:17:24;;;;;;;1.60;1.20;;;8.30;98.20;;;;;;5018710;28;21023;-74
2022/11/24 04:19:51;;;;;;;1.60;1.20;;;8.30;98.20;;;;;;5029573;28;20491;-74
2022/11/24 04:22:18;;;;;;;1.60;1.20;;;8.30;98.20;;;;;;4990933;28;20572;-74
2022/11/24 04:24:45;;;;;;;1.60;1.20;;;8.30;98.20;;;;;;5005519;28;20460;-75
2022/11/24 04:27:13;;;;;;;1.60;1.30;;;8.40;98.20;;;;;;4991700;28;20534;-74
2022/11/24 04:29:40;;;;;;;1.60;1.20;;;8.40;98.20;;;;;;4998222;28;20460;-74
2022/11/24 04:32:07;;;;;;;1.60;1.20;;;8.40;98.20;;;;;;4997206;28;20912;-74
2022/11/24 04:34:34;;;;;;;1.60;1.30;;;8.40;98.20;;;;;;5017246;28;20494;-75
2022/11/24 04:37:01;;;;;;;1.60;1.27;;;8.50;98.20;;;;;;5010704;28;20495;-74
2022/11/24 04:39:28;;;;;;;1.60;1.20;;;8.50;98.20;;;;;;5023097;28;20488;-73
2022/11/24 04:41:55;;;;;;;1.60;1.20;;;8.50;98.20;;;;;;5008747;28;20476;-75
2022/11/24 04:44:23;;;;;;;1.60;1.20;;;8.50;98.20;;;;;;5021977;28;20466;-74
2022/11/24 04:46:50;;;;;;;1.60;1.30;;;8.50;98.20;;;;;;5012727;28;20476;-74
2022/11/24 04:49:17;;;;;;;1.60;1.23;;;8.60;98.20;;;;;;5025762;28;20463;-73
2022/11/24 04:51:44;;;;;;;1.60;1.20;;;8.60;98.20;;;;;;5014364;28;21028;-75
2022/11/24 04:54:12;;;;;;;1.60;1.20;;;8.60;98.20;;;;;;5009810;28;20759;-74
2022/11/24 04:56:39;;;;;;;1.60;1.20;;;8.60;98.20;;;;;;4994684;28;20487;-75
2022/11/24 04:59:06;;;;;;;1.60;1.20;;;8.60;98.20;;;;;;5001117;28;20488;-74
2022/11/24 05:01:35;;;;;;;1.60;1.20;;;8.60;98.20;;;;;;4987808;28;20484;-73
2022/11/24 05:04:01;;;;;;;1.60;1.20;;;8.60;98.20;;;;;;5010097;28;20460;-74
2022/11/24 05:06:28;;;;;;;1.60;1.20;;;8.60;98.20;;;;;;5002070;28;20483;-74
2022/11/24 05:08:55;;;;;;;1.60;1.20;;;8.60;98.20;;;;;;5013474;28;20484;-75
2022/11/24 05:11:22;;;;;;;1.60;1.20;;;8.70;98.20;;;;;;5002393;28;20620;-73
2022/11/24 05:13:49;;;;;;;1.60;1.20;;;8.70;98.20;;;;;;5008041;28;20905;-75
2022/11/24 05:16:16;;;;;;;1.60;1.20;;;8.70;98.20;;;;;;4987687;28;20487;-74
2022/11/24 05:18:44;;;;;;;1.60;1.20;;;8.70;98.20;;;;;;5003937;28;20479;-74
2022/11/24 05:21:11;;;;;;;1.60;1.20;;;8.70;98.20;;;;;;5009333;28;20492;-74
2022/11/24 05:23:37;;;;;;;1.60;1.20;;;8.70;98.20;;;;;;5006869;28;20467;-74
2022/11/24 05:26:05;;;;;;;1.60;1.20;;;8.70;98.20;;;;;;4995778;28;20973;-73
2022/11/24 05:28:32;;;;;;;1.60;1.20;;;8.80;98.20;;;;;;5025328;28;20970;-74
2022/11/24 05:31:00;;;;;;;1.60;1.20;;;8.80;98.20;;;;;;5018300;28;20463;-74
2022/11/24 05:33:28;;;;;;;1.60;1.20;;;8.80;98.20;;;;;;5028832;28;20459;-74
2022/11/24 05:36:01;;;;;;;1.60;1.20;;;8.80;98.20;;;;;;5020825;28;20509;-74
2022/11/24 05:38:28;;;;;;;1.60;1.20;;;8.80;98.20;;;;;;5042606;28;21010;-74
2022/11/24 05:40:55;;;;;;;1.60;1.20;;;8.90;98.20;;;;;;5020129;28;21115;-75
2022/11/24 05:43:22;;;;;;;1.60;1.20;;;8.90;98.20;;;;;;5029587;28;20456;-75
2022/11/24 05:45:49;;;;;;;1.60;1.20;;;8.90;98.20;;;;;;5019796;28;20926;-74
2022/11/24 05:48:15;;;;;;;1.60;1.30;;;8.90;98.20;;;;;;5029525;28;20733;-74
2022/11/24 05:50:42;;;;;;;1.60;1.20;;;8.90;98.20;;;;;;5030509;28;20455;-74
2022/11/24 05:53:12;;;;;;;1.60;1.20;;;9.00;98.20;;;;;;5019759;28;20498;-74
2022/11/24 05:55:40;;;;;;;1.60;1.10;;;9.00;98.20;;;;;;5031519;28;20547;-74
2022/11/24 05:58:09;;;;;;;1.60;1.20;;;9.00;98.20;;;;;;5019145;28;21091;-74
2022/11/24 06:00:36;;;;;;;1.60;1.20;;;9.00;98.20;;;;;;5029000;28;20972;-75
2022/11/24 06:03:03;;;;;;;1.70;1.30;;;9.10;98.20;;;;;;5019777;28;20491;-74
2022/11/24 06:05:30;;;;;;;1.60;1.20;;;9.10;98.20;;;;;;5029711;28;20467;-74
2022/11/24 06:07:59;;;;;;;1.60;1.20;;;9.10;98.20;;;;;;5018773;28;20487;-76
2022/11/24 06:10:28;;;;;;;1.60;1.20;;;9.10;98.20;;;;;;5029958;28;20464;-77
2022/11/24 06:12:55;;;;;;;1.60;1.20;;;9.10;98.20;;;;;;5018250;28;20491;-76
2022/11/24 06:15:21;;;;;;;1.60;1.20;;;9.20;98.20;;;;;;5027761;28;20470;-76
2022/11/24 06:17:54;;;;;;;1.60;1.30;;;9.20;98.20;;;;;;5029687;28;20483;-76
2022/11/24 06:20:21;;;;;;;1.60;1.20;;;9.20;98.20;;;;;;5030730;28;20544;-75
2022/11/24 06:22:48;;;;;;;1.60;1.20;;;9.20;98.20;;;;;;5032014;28;20526;-76
2022/11/24 06:25:16;;;;;;;1.60;1.20;;;9.20;98.20;;;;;;5029738;28;20469;-75
2022/11/24 06:27:44;;;;;;;1.60;1.20;;;9.20;98.20;;;;;;5009530;28;20526;-76
2022/11/24 06:30:12;;;;;;;1.60;1.30;;;9.20;98.20;;;;;;5027264;28;20461;-76
2022/11/24 06:32:43;;;;;;;1.60;1.20;;;9.10;98.20;;;;;;5008600;28;20539;-77
2022/11/24 06:35:11;;;;;;;1.60;1.20;;;9.10;98.20;;;;;;5027516;28;20468;-75
2022/11/24 06:37:39;;;;;;;1.60;1.20;;;9.10;98.20;;;;;;5008772;28;20483;-76
2022/11/24 06:40:08;;;;;;;1.60;1.20;;;9.10;98.20;;;;;;5022733;28;20487;-76
2022/11/24 06:42:34;;;;;;;1.60;1.20;;;9.10;98.20;;;;;;5016924;28;20487;-73
2022/11/24 06:45:03;;;;;;;1.60;1.20;;;9.10;98.20;;;;;;5024316;28;20459;-76
2022/11/24 06:47:29;;;;;;;1.60;1.20;;;9.10;98.20;;;;;;5015121;28;20487;-74
2022/11/24 06:49:56;;;;;;;1.60;1.23;;;9.00;98.20;;;;;;5027899;28;21256;-74
2022/11/24 06:52:23;;;;;;;1.60;1.20;;;9.00;98.20;;;;;;5005496;28;21012;-74
2022/11/24 06:54:50;;;;;;;1.60;1.20;;;9.00;98.20;;;;;;5027924;28;20499;-75
2022/11/24 06:57:17;;;;;;;1.60;1.20;;;9.00;98.20;;;;;;5024339;28;20482;-74
2022/11/24 06:59:44;;;;;;;1.60;1.20;;;9.00;98.20;;;;;;5030021;28;20584;-75
2022/11/24 07:02:12;;;;;;;1.60;1.20;;;8.90;98.20;;;;;;5017229;28;20846;-75
2022/11/24 07:04:39;;;;;;;1.60;1.20;;;8.90;98.20;;;;;;5026129;28;20570;-75
2022/11/24 07:07:05;;;;;;;1.60;1.20;;;8.90;98.20;;;;;;5014335;28;20569;-75
2022/11/24 07:09:32;;;;;;;1.60;1.20;;;8.80;98.20;;;;;;5027534;28;20549;-75
2022/11/24 07:12:01;;;;;;;1.60;1.20;;;8.80;98.20;;;;;;5016504;28;20491;-76
2022/11/24 07:14:27;;;;;;;1.60;1.20;;;8.70;98.20;;;;;;5026039;28;20841;-75
2022/11/24 07:16:54;;;;;;;1.60;1.20;;;8.70;98.20;;;;;;5018456;28;20479;-75
2022/11/24 07:19:22;;;;;;;1.60;1.20;;;8.60;98.20;;;;;;5027095;28;20459;-74
2022/11/24 07:21:49;;;;;;;1.60;1.20;;;8.60;98.20;;;;;;5023817;28;20493;-76
2022/11/24 07:24:16;;;;;;;1.60;1.10;;;8.50;98.20;;;;;;5039129;28;20459;-75
2022/11/24 07:26:44;;;;;;;1.60;1.20;;;8.50;98.20;;;;;;5015651;28;20483;-76
2022/11/24 07:29:11;;;;;;;1.60;1.17;;;8.50;98.20;;;;;;5014383;28;20474;-75
2022/11/24 07:31:38;;;;;;;1.60;1.20;;;8.50;98.20;;;;;;5008166;28;20911;-76
2022/11/24 07:34:05;;;;;;;1.60;1.10;;;8.60;98.20;;;;;;5026222;28;20546;-76
2022/11/24 07:36:34;;;;;;;1.60;1.20;;;8.60;98.20;;;;;;5016801;28;20479;-75
2022/11/24 07:39:01;;;;;;;1.60;1.40;;;8.60;98.20;;;;;;5025227;28;20497;-76
2022/11/24 07:41:28;;;;;;;1.60;1.20;;;8.60;98.20;;;;;;5016563;28;20483;-75
2022/11/24 07:43:56;;;;;;;1.60;1.20;;;8.60;98.20;;;;;;5027013;28;20502;-76
2022/11/24 07:46:23;;;;;;;1.60;1.20;;;8.70;98.20;;;;;;5016117;28;20540;-75
2022/11/24 07:48:50;;;;;;;1.60;1.20;;;8.70;98.20;;;;;;5025177;28;20483;-75
2022/11/24 07:51:17;;;;;;;1.60;1.20;;;8.70;98.20;;;;;;5014825;28;20490;-75
2022/11/24 07:53:46;;;;;;;1.60;1.10;;;8.70;98.20;;;;;;5024360;28;20623;-76
2022/11/24 07:56:13;;;;;;;1.60;1.20;;;8.70;98.20;;;;;;5019406;28;20483;-76
2022/11/24 07:58:40;;;;;;;1.60;1.10;;;8.70;98.20;;;;;;5020662;28;20487;-75
2022/11/24 08:01:12;;;;;;;1.60;1.20;;;8.70;98.20;;;;;;5020343;28;20506;-75
2022/11/24 08:03:40;;;;;;;1.60;1.20;;;8.70;98.20;;;;;;5031560;28;20459;-76
2022/11/24 08:06:08;;;;;;;1.60;1.30;;;8.80;98.20;;;;;;5018011;28;20452;-75
2022/11/24 08:08:35;;;;;;;1.60;1.20;;;8.80;98.20;;;;;;5030197;28;20588;-76
2022/11/24 08:11:09;;;;;;;1.60;1.20;;;8.80;98.20;;;;;;5019789;28;20467;-75
2022/11/24 08:13:37;;;;;;;1.60;1.20;;;8.80;98.20;;;;;;5027511;28;20467;-75
2022/11/24 08:16:05;;;;;;;1.60;1.20;;;8.90;98.20;;;;;;5020224;28;20533;-77
2022/11/24 08:18:33;;;;;;;1.60;1.10;;;8.90;98.20;;;;;;5038749;28;20976;-77
2022/11/24 08:21:00;;;;;;;1.60;1.20;;;8.90;98.20;;;;;;5019257;28;20483;-75
2022/11/24 08:23:28;;;;;;;1.60;1.20;;;9.00;98.20;;;;;;5026515;28;20470;-76
2022/11/24 08:25:56;;;;;;;1.60;1.10;;;9.00;98.20;;;;;;5023862;28;20474;-74
2022/11/24 08:28:24;;;;;;;1.60;1.27;;;9.10;98.20;;;;;;5016280;28;20570;-76
2022/11/24 08:30:52;;;;;;;1.60;1.17;;;9.10;98.20;;;;;;5019369;28;20466;-74
2022/11/24 08:33:19;;;;;;;1.60;1.20;;;9.10;98.20;;;;;;5025513;28;20900;-76
2022/11/24 08:35:46;;;;;;;1.60;1.20;;;9.20;98.20;;;;;;5034419;28;20470;-73
2022/11/24 08:38:13;;;;;;;1.60;1.20;;;9.20;98.20;;;;;;5022802;28;20931;-76
2022/11/24 08:40:40;;;;;;;3.47;3.20;;;9.20;98.20;;;;;;5027439;28;20489;-76
2022/11/24 08:43:07;;;;;;;1.60;1.20;;;9.30;98.20;;;;;;5021099;28;20520;-73
2022/11/24 08:45:36;;;;;;;1.60;1.20;;;9.30;98.20;;;;;;5025838;28;20489;-75
2022/11/24 08:48:04;;;;;;;1.60;1.20;;;9.40;98.20;;;;;;5016995;28;20497;-74
2022/11/24 08:50:34;;;;;;;1.60;1.20;;;9.40;98.20;;;;;;5029093;28;20494;-75
2022/11/24 08:53:02;;;;;;;1.60;1.20;;;9.50;98.20;;;;;;5019842;28;20490;-77
2022/11/24 08:55:29;;;;;;;1.60;1.30;;;9.50;98.20;;;;;;5029619;28;21002;-75
2022/11/24 08:57:57;;;;;;;1.60;1.17;;;9.60;98.20;;;;;;5030274;28;20484;-75
2022/11/24 09:00:24;;;;;;;1.60;1.10;;;9.60;98.20;;;;;;5028570;28;20499;-75
2022/11/24 09:02:56;;;;;;;1.60;1.20;;;9.70;98.20;;;;;;5017071;28;21058;-74
2022/11/24 09:05:24;;;;;;;1.60;1.10;;;9.80;98.20;;;;;;5027342;28;20541;-77
2022/11/24 09:07:51;;;;;;;1.60;1.20;;;9.80;98.20;;;;;;5025918;28;20486;-75
2022/11/24 09:10:18;;;;;;;1.60;1.10;;;9.90;98.20;;;;;;5029809;28;20978;-77
2022/11/24 09:12:47;;;;;;;1.60;1.10;;;9.90;98.20;;;;;;5025653;28;20485;-74
2022/11/24 09:15:15;;;;;;;1.60;1.20;;;9.90;98.20;;;;;;5026104;28;20839;-74
2022/11/24 09:17:43;;;;;;;1.60;1.10;;;9.90;98.20;;;;;;5016750;28;20510;-75
2022/11/24 09:20:12;;;;;;;1.60;1.10;;;10.00;98.20;;;;;;5028221;28;20521;-74
2022/11/24 09:22:41;;;;;;;1.60;1.10;;;10.00;98.20;;;;;;5016334;28;20475;-75
2022/11/24 09:25:09;;;;;;;1.60;1.10;;;10.10;98.20;;;;;;5032786;28;20485;-75
2022/11/24 09:27:37;;;;;;;4.03;3.73;;;10.20;98.20;;;;;;5013517;28;20936;-75
2022/11/24 09:30:05;;;;;;;1.60;1.10;;;10.30;98.20;;;;;;5025828;28;20463;-76
2022/11/24 09:32:32;;;;;;;1.60;1.10;;;10.40;98.20;;;;;;5024492;28;20505;-76
2022/11/24 09:34:59;;;;;;;1.60;1.10;;;10.40;98.20;;;;;;5032945;28;21045;-75
2022/11/24 09:37:32;;;;;;;1.60;1.20;;;10.40;98.20;;;;;;5009047;28;20522;-76
2022/11/24 09:40:00;;;;;;;1.60;1.10;;;10.40;98.20;;;;;;5027505;28;20459;-74
2022/11/24 09:42:41;;;;;;;1.60;1.10;;;10.40;98.20;;;;;;5011413;28;20589;-75
2022/11/24 09:45:21;;;;;;;1.60;1.10;;;10.40;98.20;;;;;;5026952;28;20537;-75
2022/11/24 09:47:58;;;;;;;1.60;1.10;;;10.40;98.20;;;;;;5015850;28;20483;-76
2022/11/24 09:50:28;;;;;;;1.60;1.13;;;10.40;98.20;;;;;;5033434;28;21073;-76
2022/11/24 09:53:03;;;;;;;1.60;1.20;;;10.40;98.20;;;;;;5018560;28;20521;-75
2022/11/24 09:55:39;;;;;;;1.60;1.10;;;10.50;98.20;;;;;;5033215;28;20553;-75
2022/11/24 09:58:14;;;;;;;1.60;1.20;;;10.50;98.20;;;;;;5005789;28;20483;-74
2022/11/24 10:00:42;;;;;;;1.60;1.13;;;10.60;98.20;;;;;;5026060;28;20556;-75
2022/11/24 10:03:21;;;;;;;1.60;1.10;;;10.70;98.20;;;;;;5016274;28;20827;-74
2022/11/24 10:05:51;;;;;;;1.60;1.10;;;10.80;98.20;;;;;;5026899;28;20462;-74
2022/11/24 10:08:32;;;;;;;1.60;1.20;;;10.80;98.20;;;;;;5023184;28;20522;-74
2022/11/24 10:11:02;;;;;;;1.60;1.20;;;10.90;98.20;;;;;;5018651;28;20466;-72
2022/11/24 10:13:55;;;;;;;1.60;1.10;;;11.00;98.20;;;;;;5026611;28;21138;-73
2022/11/24 10:16:33;;;;;;;1.60;1.10;;;11.00;98.20;;;;;;5016661;28;20481;-76
2022/11/24 10:19:14;;;;;;;1.60;1.10;;;11.10;98.20;;;;;;5026748;28;20483;-76
2022/11/24 10:21:59;;;;;;;1.60;1.10;;;11.10;98.20;;;;;;5021357;28;20890;-75
2022/11/24 10:24:58;;;;;;;1.60;1.17;;;11.00;98.20;;;;;;5035971;28;20459;-74
2022/11/24 10:27:30;;;;;;;1.60;1.10;;;11.00;98.20;;;;;;5027132;28;20896;-75
2022/11/24 10:29:57;;;;;;;1.60;1.10;;;10.90;98.20;;;;;;5025574;28;20642;-75
2022/11/24 10:32:29;;;;;;;1.60;1.10;;;10.90;98.20;;;;;;5006123;28;20472;-75
2022/11/24 10:35:02;;;;;;;1.60;1.10;;;10.80;98.20;;;;;;5026849;28;20508;-75
2022/11/24 10:37:35;;;;;;;1.60;1.10;;;10.70;98.20;;;;;;5011355;28;20494;-76
2022/11/24 10:40:18;;;;;;;1.60;1.10;;;10.60;98.20;;;;;;5137846;27;20535;-73
2022/11/24 10:42:47;;;;;;;1.60;1.20;;;10.60;98.20;;;;;;5097195;27;20479;-72
2022/11/24 10:45:18;;;;;;;1.60;1.20;;;10.60;98.20;;;;;;5086483;28;20476;-72
2022/11/24 10:47:46;;;;;;;1.60;1.10;;;10.60;98.20;;;;;;5086114;28;20571;-71
2022/11/24 10:50:22;;;;;;;1.60;1.10;;;10.50;98.20;;;;;;5078885;28;20453;-73
2022/11/24 10:52:56;;;;;;;1.60;1.20;;;10.60;98.20;;;;;;5087170;28;21010;-74
2022/11/24 10:55:24;;;;;;;1.60;1.17;;;10.60;98.20;;;;;;5081879;28;20465;-73
2022/11/24 10:57:51;;;;;;;1.60;1.13;;;10.60;98.20;;;;;;5086752;28;20493;-73
2022/11/24 11:00:34;;;;;;;1.60;1.20;;;10.70;98.20;;;;;;5081408;28;20503;-73
2022/11/24 11:03:16;;;;;;;1.60;1.10;;;10.70;98.20;;;;;;5085964;28;20995;-73
2022/11/24 11:05:48;;;;;;;1.60;1.10;;;10.80;98.20;;;;;;5081202;28;20533;-74
2022/11/24 11:08:19;;;;;;;1.60;1.10;;;10.80;98.20;;;;;;5070894;28;21233;-73
2022/11/24 11:10:50;;;;;;;1.60;1.10;;;10.90;98.20;;;;;;5080892;28;20790;-75
2022/11/24 11:13:22;;;;;;;2.27;2.07;;;10.90;98.20;;;;;;5071597;28;20473;-72
2022/11/24 11:15:50;;;;;;;1.60;1.00;;;11.00;98.20;;;;;;5072092;28;20453;-74
2022/11/24 11:18:19;;;;;;;1.60;1.10;;;11.00;98.20;;;;;;5096820;28;20488;-73
2022/11/24 11:20:54;;;;;;;1.57;1.10;;;11.00;98.20;;;;;;5083860;28;20942;-74
2022/11/24 11:23:26;;;;;;;3.87;3.57;;;11.00;98.20;;;;;;5069969;28;20560;-73
2022/11/24 11:26:29;;;;;;;1.60;1.10;;;11.00;98.20;;;;;;5071353;28;20453;-73
2022/11/24 11:29:03;;;;;;;1.60;1.10;;;11.00;98.20;;;;;;5088606;28;20476;-73
2022/11/24 11:31:32;;;;;;;1.60;1.10;;;11.00;98.20;;;;;;5073778;28;20471;-73
2022/11/24 11:34:03;;;;;;;1.60;1.10;;;11.00;98.20;;;;;;5091524;28;20952;-73
2022/11/24 11:36:33;;;;;;;1.60;1.10;;;11.00;98.20;;;;;;5073591;28;20471;-72
2022/11/24 11:39:00;;;;;;;1.60;1.10;;;11.00;98.20;;;;;;5087473;28;20541;-73
2022/11/24 11:41:32;;;;;;;1.60;1.10;;;11.00;98.20;;;;;;5074534;28;20472;-73
2022/11/24 11:44:14;;;;;;;1.60;1.10;;;11.00;98.20;;;;;;5090873;28;20524;-72
2022/11/24 11:46:43;;;;;;;1.60;1.20;;;10.90;98.20;;;;;;5076014;28;20495;-72
2022/11/24 11:49:13;;;;;;;1.60;1.10;;;11.00;98.20;;;;;;5089027;28;20507;-73
2022/11/24 11:55:14;;;;;;;1.60;1.10;;;11.00;98.20;;;;;;5072267;28;20502;-74
2022/11/24 11:57:51;;;;;;;1.60;1.10;;;11.00;98.20;;;;;;5067051;28;20491;-73
2022/11/24 12:00:21;;;;;;;1.60;1.10;;;11.00;98.20;;;;;;5069374;28;20488;-73
2022/11/24 12:03:16;;;;;;;1.60;1.20;;;11.00;98.20;;;;;;5071199;28;20881;-74
2022/11/24 12:05:51;;;;;;;1.60;1.10;;;11.10;98.20;;;;;;5070405;28;21024;-73
2022/11/24 12:08:29;;;;;;;1.60;1.10;;;11.10;98.20;;;;;;5058677;28;20505;-74
2022/11/24 12:11:05;;;;;;;1.60;1.20;;;11.10;98.20;;;;;;5058953;28;20655;-74
2022/11/24 12:13:58;;;;;;;1.60;1.10;;;11.10;98.20;;;;;;5078205;28;20543;-74
2022/11/24 12:16:35;;;;;;;1.60;1.10;;;11.10;98.20;;;;;;5060942;28;21055;-73
2022/11/24 12:19:16;;;;;;;1.60;1.10;;;11.20;98.20;;;;;;5078410;28;20493;-73
2022/11/24 12:21:55;;;;;;;1.60;1.20;;;11.20;98.20;;;;;;5060940;28;20546;-74
2022/11/24 12:24:35;;;;;;;1.60;1.10;;;11.20;98.20;;;;;;5070915;28;20457;-74
2022/11/24 12:27:09;;;;;;;1.60;1.10;;;11.30;98.20;;;;;;5064973;28;20666;-73
2022/11/24 12:29:51;;;;;;;1.60;1.13;;;11.40;98.20;;;;;;5072847;28;20457;-73
2022/11/24 12:32:34;;;;;;;1.60;1.20;;;11.50;98.20;;;;;;5068087;28;20544;-73
2022/11/24 12:35:14;;;;;;;1.60;1.10;;;11.60;98.20;;;;;;5066482;28;20458;-74
2022/11/24 12:37:52;;;;;;;1.60;1.10;;;11.80;98.20;;;;;;5065198;28;20487;-73
2022/11/24 12:40:32;;;;;;;1.60;1.10;;;12.00;98.20;;;;;;5059034;28;20488;-74
2022/11/24 12:43:08;;;;;;;1.60;1.10;;;12.30;98.20;;;;;;5041179;28;20863;-73
2022/11/24 12:45:47;;;;;;;1.60;1.00;;;12.50;98.20;;;;;;5052125;28;20763;-73
2022/11/24 12:48:24;;;;;;;1.60;1.00;;;12.60;98.20;;;;;;5047124;28;20481;-73
2022/11/24 12:50:54;;;;;;;1.60;1.10;;;12.80;98.20;;;;;;5051030;28;20520;-73
2022/11/24 12:53:24;;;;;;;1.60;1.00;;;12.90;98.20;;;;;;5073897;28;20474;-74
2022/11/24 12:55:53;;;;;;;1.60;1.00;;;13.00;98.20;;;;;;5053166;28;20456;-74
2022/11/24 12:58:26;;;;;;;1.60;1.10;;;13.20;98.20;;;;;;5081233;28;20572;-72
2022/11/24 13:01:08;;;;;;;1.60;1.00;;;13.30;98.20;;;;;;5055715;28;20556;-72
2022/11/24 13:03:45;;;;;;;1.60;1.10;;;13.30;98.20;;;;;;5075905;28;20472;-73
2022/11/24 13:06:18;;;;;;;1.60;1.10;;;13.30;98.20;;;;;;5058531;28;20480;-73
2022/11/24 13:08:45;;;;;;;1.70;1.30;;;13.30;98.20;;;;;;5076585;28;20954;-73
2022/11/24 13:11:41;;;;;;;1.60;1.00;;;13.40;98.20;;;;;;5057695;28;20480;-73
2022/11/24 13:14:14;;;;;;;1.60;1.00;;;13.30;98.20;;;;;;5074366;28;20485;-73